sensor_id;sensor_type;location;lat;lon;timestamp;P1;durP1;ratioP1;P2;durP2;ratioP2
78871;SDS011;68247;43.514;1.502;2024-03-23T00:51:41;11.70;;;6.80;;
78871;SDS011;68247;43.514;1.502;2024-03-23T00:54:07;11.75;;;6.55;;
78871;SDS011;68247;43.514;1.502;2024-03-23T00:56:33;12.00;;;7.30;;
78871;SDS011;68247;43.514;1.502;2024-03-23T00:58:58;15.80;;;6.90;;
78871;SDS011;68247;43.514;1.502;2024-03-23T01:01:24;12.10;;;6.70;;
78871;SDS011;68247;43.514;1.502;2024-03-23T01:03:49;12.87;;;7.40;;
78871;SDS011;68247;43.514;1.502;2024-03-23T01:06:14;12.03;;;6.70;;
78871;SDS011;68247;43.514;1.502;2024-03-23T01:08:40;13.15;;;7.65;;
78871;SDS011;68247;43.514;1.502;2024-03-23T01:11:05;11.03;;;6.57;;
78871;SDS011;68247;43.514;1.502;2024-03-23T01:13:31;10.50;;;7.17;;
78871;SDS011;68247;43.514;1.502;2024-03-23T01:15:56;11.60;;;6.50;;
78871;SDS011;68247;43.514;1.502;2024-03-23T01:18:22;12.37;;;6.90;;
78871;SDS011;68247;43.514;1.502;2024-03-23T01:20:48;12.30;;;8.30;;
78871;SDS011;68247;43.514;1.502;2024-03-23T01:23:13;11.90;;;6.55;;
78871;SDS011;68247;43.514;1.502;2024-03-23T01:25:39;13.33;;;7.83;;
78871;SDS011;68247;43.514;1.502;2024-03-23T01:28:05;11.20;;;7.10;;
78871;SDS011;68247;43.514;1.502;2024-03-23T01:30:34;13.98;;;7.38;;
78871;SDS011;68247;43.514;1.502;2024-03-23T01:32:59;12.85;;;6.60;;
78871;SDS011;68247;43.514;1.502;2024-03-23T01:35:25;15.20;;;7.67;;
78871;SDS011;68247;43.514;1.502;2024-03-23T01:37:50;14.68;;;7.28;;
78871;SDS011;68247;43.514;1.502;2024-03-23T01:40:16;13.33;;;8.30;;
78871;SDS011;68247;43.514;1.502;2024-03-23T01:42:42;12.93;;;7.80;;
78871;SDS011;68247;43.514;1.502;2024-03-23T01:45:07;13.95;;;8.02;;
78871;SDS011;68247;43.514;1.502;2024-03-23T01:47:34;15.68;;;7.15;;
78871;SDS011;68247;43.514;1.502;2024-03-23T01:50:00;12.90;;;8.30;;
78871;SDS011;68247;43.514;1.502;2024-03-23T01:52:26;16.37;;;7.83;;
78871;SDS011;68247;43.514;1.502;2024-03-23T01:54:52;14.70;;;7.97;;
78871;SDS011;68247;43.514;1.502;2024-03-23T01:57:18;10.93;;;6.50;;
78871;SDS011;68247;43.514;1.502;2024-03-23T01:59:43;12.23;;;6.93;;
78871;SDS011;68247;43.514;1.502;2024-03-23T02:02:09;12.57;;;6.97;;
78871;SDS011;68247;43.514;1.502;2024-03-23T02:04:35;11.40;;;6.93;;
78871;SDS011;68247;43.514;1.502;2024-03-23T02:07:00;13.33;;;7.10;;
78871;SDS011;68247;43.514;1.502;2024-03-23T02:09:25;9.77;;;5.97;;
78871;SDS011;68247;43.514;1.502;2024-03-23T02:11:51;13.07;;;7.20;;
78871;SDS011;68247;43.514;1.502;2024-03-23T02:14:16;12.82;;;6.78;;
78871;SDS011;68247;43.514;1.502;2024-03-23T02:16:42;11.47;;;6.00;;
78871;SDS011;68247;43.514;1.502;2024-03-23T02:19:08;10.63;;;6.38;;
78871;SDS011;68247;43.514;1.502;2024-03-23T02:21:33;10.77;;;5.70;;
78871;SDS011;68247;43.514;1.502;2024-03-23T02:23:59;9.83;;;5.60;;
78871;SDS011;68247;43.514;1.502;2024-03-23T02:26:25;10.25;;;5.85;;
78871;SDS011;68247;43.514;1.502;2024-03-23T02:28:50;11.00;;;5.67;;
78871;SDS011;68247;43.514;1.502;2024-03-23T02:31:16;10.38;;;6.10;;
78871;SDS011;68247;43.514;1.502;2024-03-23T02:33:41;11.13;;;5.20;;
78871;SDS011;68247;43.514;1.502;2024-03-23T02:36:07;8.17;;;5.17;;
78871;SDS011;68247;43.514;1.502;2024-03-23T02:38:32;10.87;;;4.90;;
78871;SDS011;68247;43.514;1.502;2024-03-23T02:41:04;8.52;;;4.82;;
78871;SDS011;68247;43.514;1.502;2024-03-23T02:43:29;8.43;;;3.87;;
78871;SDS011;68247;43.514;1.502;2024-03-23T02:45:55;7.05;;;4.05;;
78871;SDS011;68247;43.514;1.502;2024-03-23T02:48:20;5.67;;;3.40;;
78871;SDS011;68247;43.514;1.502;2024-03-23T02:50:46;5.80;;;3.73;;
78871;SDS011;68247;43.514;1.502;2024-03-23T02:53:11;6.90;;;3.43;;
78871;SDS011;68247;43.514;1.502;2024-03-23T02:55:37;7.45;;;3.38;;
78871;SDS011;68247;43.514;1.502;2024-03-23T02:58:02;6.43;;;3.20;;
78871;SDS011;68247;43.514;1.502;2024-03-23T03:00:28;8.93;;;3.70;;
78871;SDS011;68247;43.514;1.502;2024-03-23T03:02:54;6.50;;;3.22;;
78871;SDS011;68247;43.514;1.502;2024-03-23T03:05:19;9.30;;;3.00;;
78871;SDS011;68247;43.514;1.502;2024-03-23T03:07:45;7.90;;;2.97;;
78871;SDS011;68247;43.514;1.502;2024-03-23T03:10:10;6.77;;;3.03;;
78871;SDS011;68247;43.514;1.502;2024-03-23T03:12:36;6.30;;;3.33;;
78871;SDS011;68247;43.514;1.502;2024-03-23T03:15:03;6.60;;;3.38;;
78871;SDS011;68247;43.514;1.502;2024-03-23T03:17:31;6.97;;;3.25;;
78871;SDS011;68247;43.514;1.502;2024-03-23T03:19:57;6.23;;;2.70;;
78871;SDS011;68247;43.514;1.502;2024-03-23T03:22:22;6.17;;;3.10;;
78871;SDS011;68247;43.514;1.502;2024-03-23T03:24:48;7.97;;;3.70;;
78871;SDS011;68247;43.514;1.502;2024-03-23T03:27:14;7.30;;;2.90;;
78871;SDS011;68247;43.514;1.502;2024-03-23T03:29:39;6.55;;;2.97;;
78871;SDS011;68247;43.514;1.502;2024-03-23T03:32:05;7.50;;;3.60;;
78871;SDS011;68247;43.514;1.502;2024-03-23T03:34:31;8.20;;;3.15;;
78871;SDS011;68247;43.514;1.502;2024-03-23T03:36:56;7.37;;;3.27;;
78871;SDS011;68247;43.514;1.502;2024-03-23T03:39:23;12.77;;;3.20;;
78871;SDS011;68247;43.514;1.502;2024-03-23T03:41:49;7.05;;;2.90;;
78871;SDS011;68247;43.514;1.502;2024-03-23T03:44:15;5.30;;;2.57;;
78871;SDS011;68247;43.514;1.502;2024-03-23T03:46:40;7.60;;;3.42;;
78871;SDS011;68247;43.514;1.502;2024-03-23T03:49:06;7.57;;;3.40;;
78871;SDS011;68247;43.514;1.502;2024-03-23T03:51:31;7.03;;;2.63;;
78871;SDS011;68247;43.514;1.502;2024-03-23T03:53:56;4.80;;;3.03;;
78871;SDS011;68247;43.514;1.502;2024-03-23T03:56:22;8.60;;;3.10;;
78871;SDS011;68247;43.514;1.502;2024-03-23T03:58:48;7.53;;;2.77;;
78871;SDS011;68247;43.514;1.502;2024-03-23T04:01:13;7.57;;;3.13;;
78871;SDS011;68247;43.514;1.502;2024-03-23T04:03:39;6.07;;;2.42;;
78871;SDS011;68247;43.514;1.502;2024-03-23T04:06:09;5.70;;;2.90;;
78871;SDS011;68247;43.514;1.502;2024-03-23T04:08:34;9.70;;;3.25;;
78871;SDS011;68247;43.514;1.502;2024-03-23T04:11:00;9.68;;;3.50;;
78871;SDS011;68247;43.514;1.502;2024-03-23T04:13:26;6.47;;;2.90;;
78871;SDS011;68247;43.514;1.502;2024-03-23T04:15:55;8.23;;;3.03;;
78871;SDS011;68247;43.514;1.502;2024-03-23T04:18:21;7.18;;;2.90;;
78871;SDS011;68247;43.514;1.502;2024-03-23T04:20:47;9.02;;;3.10;;
78871;SDS011;68247;43.514;1.502;2024-03-23T04:23:13;4.88;;;2.67;;
78871;SDS011;68247;43.514;1.502;2024-03-23T04:25:38;5.90;;;3.00;;
78871;SDS011;68247;43.514;1.502;2024-03-23T04:28:04;5.20;;;3.03;;
78871;SDS011;68247;43.514;1.502;2024-03-23T04:30:30;5.78;;;2.90;;
78871;SDS011;68247;43.514;1.502;2024-03-23T04:32:56;6.32;;;2.88;;
78871;SDS011;68247;43.514;1.502;2024-03-23T04:35:23;6.50;;;2.83;;
78871;SDS011;68247;43.514;1.502;2024-03-23T04:37:50;6.30;;;2.38;;
78871;SDS011;68247;43.514;1.502;2024-03-23T04:40:17;5.47;;;2.50;;
78871;SDS011;68247;43.514;1.502;2024-03-23T04:42:43;5.13;;;2.25;;
78871;SDS011;68247;43.514;1.502;2024-03-23T04:45:09;7.30;;;3.00;;
78871;SDS011;68247;43.514;1.502;2024-03-23T04:47:36;5.78;;;2.75;;
78871;SDS011;68247;43.514;1.502;2024-03-23T04:50:03;8.25;;;2.85;;
78871;SDS011;68247;43.514;1.502;2024-03-23T04:52:29;7.05;;;2.42;;
78871;SDS011;68247;43.514;1.502;2024-03-23T04:54:55;6.03;;;2.63;;
78871;SDS011;68247;43.514;1.502;2024-03-23T04:57:20;5.32;;;2.55;;
78871;SDS011;68247;43.514;1.502;2024-03-23T04:59:46;7.20;;;2.90;;
78871;SDS011;68247;43.514;1.502;2024-03-23T05:02:12;7.85;;;3.55;;
78871;SDS011;68247;43.514;1.502;2024-03-23T05:04:37;7.60;;;2.97;;
78871;SDS011;68247;43.514;1.502;2024-03-23T05:07:03;7.03;;;2.20;;
78871;SDS011;68247;43.514;1.502;2024-03-23T05:09:29;7.63;;;2.25;;
78871;SDS011;68247;43.514;1.502;2024-03-23T05:12:04;6.57;;;2.47;;
78871;SDS011;68247;43.514;1.502;2024-03-23T05:14:30;5.63;;;2.13;;
78871;SDS011;68247;43.514;1.502;2024-03-23T05:16:55;4.78;;;2.42;;
78871;SDS011;68247;43.514;1.502;2024-03-23T05:19:21;6.40;;;2.23;;
78871;SDS011;68247;43.514;1.502;2024-03-23T05:21:47;7.05;;;2.22;;
78871;SDS011;68247;43.514;1.502;2024-03-23T05:24:12;5.13;;;2.43;;
78871;SDS011;68247;43.514;1.502;2024-03-23T05:26:38;9.70;;;2.93;;
78871;SDS011;68247;43.514;1.502;2024-03-23T05:29:03;6.15;;;2.38;;
78871;SDS011;68247;43.514;1.502;2024-03-23T05:31:30;6.13;;;2.60;;
78871;SDS011;68247;43.514;1.502;2024-03-23T05:33:56;7.80;;;2.70;;
78871;SDS011;68247;43.514;1.502;2024-03-23T05:36:22;6.20;;;2.67;;
78871;SDS011;68247;43.514;1.502;2024-03-23T05:38:48;9.38;;;2.38;;
78871;SDS011;68247;43.514;1.502;2024-03-23T05:41:14;5.87;;;2.37;;
78871;SDS011;68247;43.514;1.502;2024-03-23T05:43:39;6.83;;;2.67;;
78871;SDS011;68247;43.514;1.502;2024-03-23T05:46:05;6.40;;;2.30;;
78871;SDS011;68247;43.514;1.502;2024-03-23T05:48:31;5.80;;;2.63;;
78871;SDS011;68247;43.514;1.502;2024-03-23T05:50:57;6.17;;;2.63;;
78871;SDS011;68247;43.514;1.502;2024-03-23T05:53:22;5.35;;;2.25;;
78871;SDS011;68247;43.514;1.502;2024-03-23T05:55:49;6.73;;;2.27;;
78871;SDS011;68247;43.514;1.502;2024-03-23T05:58:15;7.97;;;2.53;;
78871;SDS011;68247;43.514;1.502;2024-03-23T06:00:42;5.32;;;2.42;;
78871;SDS011;68247;43.514;1.502;2024-03-23T06:03:08;9.18;;;2.35;;
78871;SDS011;68247;43.514;1.502;2024-03-23T06:05:34;7.15;;;2.13;;
78871;SDS011;68247;43.514;1.502;2024-03-23T06:08:00;7.23;;;2.43;;
78871;SDS011;68247;43.514;1.502;2024-03-23T06:10:25;7.07;;;2.60;;
78871;SDS011;68247;43.514;1.502;2024-03-23T06:12:51;7.33;;;2.50;;
78871;SDS011;68247;43.514;1.502;2024-03-23T06:15:17;9.40;;;2.70;;
78871;SDS011;68247;43.514;1.502;2024-03-23T06:17:44;7.85;;;2.58;;
78871;SDS011;68247;43.514;1.502;2024-03-23T06:20:10;8.65;;;2.40;;
78871;SDS011;68247;43.514;1.502;2024-03-23T06:22:35;5.43;;;2.27;;
78871;SDS011;68247;43.514;1.502;2024-03-23T06:25:01;5.78;;;2.25;;
78871;SDS011;68247;43.514;1.502;2024-03-23T06:27:27;5.70;;;2.13;;
78871;SDS011;68247;43.514;1.502;2024-03-23T06:29:52;5.43;;;2.20;;
78871;SDS011;68247;43.514;1.502;2024-03-23T06:32:17;6.93;;;2.60;;
78871;SDS011;68247;43.514;1.502;2024-03-23T06:34:43;7.60;;;2.47;;
78871;SDS011;68247;43.514;1.502;2024-03-23T06:37:09;6.75;;;2.20;;
78871;SDS011;68247;43.514;1.502;2024-03-23T06:39:38;3.87;;;1.90;;
78871;SDS011;68247;43.514;1.502;2024-03-23T06:42:04;6.15;;;2.40;;
78871;SDS011;68247;43.514;1.502;2024-03-23T06:44:29;5.13;;;2.33;;
78871;SDS011;68247;43.514;1.502;2024-03-23T06:46:55;4.90;;;1.93;;
78871;SDS011;68247;43.514;1.502;2024-03-23T06:49:23;8.40;;;2.42;;
78871;SDS011;68247;43.514;1.502;2024-03-23T06:51:49;7.80;;;2.60;;
78871;SDS011;68247;43.514;1.502;2024-03-23T06:54:16;5.53;;;2.30;;
78871;SDS011;68247;43.514;1.502;2024-03-23T06:56:42;5.90;;;2.53;;
78871;SDS011;68247;43.514;1.502;2024-03-23T06:59:07;5.10;;;2.07;;
78871;SDS011;68247;43.514;1.502;2024-03-23T07:01:32;5.13;;;2.25;;
78871;SDS011;68247;43.514;1.502;2024-03-23T07:03:58;4.33;;;2.30;;
78871;SDS011;68247;43.514;1.502;2024-03-23T07:06:23;6.53;;;2.47;;
78871;SDS011;68247;43.514;1.502;2024-03-23T07:08:49;6.73;;;2.40;;
78871;SDS011;68247;43.514;1.502;2024-03-23T07:11:21;5.83;;;2.30;;
78871;SDS011;68247;43.514;1.502;2024-03-23T07:13:49;5.85;;;2.38;;
78871;SDS011;68247;43.514;1.502;2024-03-23T07:16:15;6.22;;;2.50;;
78871;SDS011;68247;43.514;1.502;2024-03-23T07:18:41;6.03;;;2.33;;
78871;SDS011;68247;43.514;1.502;2024-03-23T07:21:06;8.57;;;2.60;;
78871;SDS011;68247;43.514;1.502;2024-03-23T07:23:32;5.90;;;2.67;;
78871;SDS011;68247;43.514;1.502;2024-03-23T07:25:58;5.50;;;2.63;;
78871;SDS011;68247;43.514;1.502;2024-03-23T07:28:27;4.00;;;2.30;;
78871;SDS011;68247;43.514;1.502;2024-03-23T07:31:14;6.53;;;2.72;;
78871;SDS011;68247;43.514;1.502;2024-03-23T07:33:44;5.83;;;2.40;;
78871;SDS011;68247;43.514;1.502;2024-03-23T07:36:13;6.65;;;2.40;;
78871;SDS011;68247;43.514;1.502;2024-03-23T07:38:42;11.17;;;2.63;;
78871;SDS011;68247;43.514;1.502;2024-03-23T07:41:10;4.85;;;2.63;;
78871;SDS011;68247;43.514;1.502;2024-03-23T07:43:37;8.43;;;2.83;;
78871;SDS011;68247;43.514;1.502;2024-03-23T07:46:03;10.23;;;3.20;;
78871;SDS011;68247;43.514;1.502;2024-03-23T07:48:29;7.43;;;2.88;;
78871;SDS011;68247;43.514;1.502;2024-03-23T07:51:02;4.00;;;1.60;;
78871;SDS011;68247;43.514;1.502;2024-03-23T07:53:28;4.35;;;1.20;;
78871;SDS011;68247;43.514;1.502;2024-03-23T07:55:54;4.82;;;1.08;;
78871;SDS011;68247;43.514;1.502;2024-03-23T07:58:20;3.08;;;1.10;;
78871;SDS011;68247;43.514;1.502;2024-03-23T08:00:46;2.67;;;1.00;;
78871;SDS011;68247;43.514;1.502;2024-03-23T08:03:11;4.00;;;0.90;;
78871;SDS011;68247;43.514;1.502;2024-03-23T08:05:37;2.93;;;0.90;;
78871;SDS011;68247;43.514;1.502;2024-03-23T08:08:02;2.83;;;1.00;;
78871;SDS011;68247;43.514;1.502;2024-03-23T08:10:28;3.60;;;0.80;;
78871;SDS011;68247;43.514;1.502;2024-03-23T08:12:53;3.10;;;0.90;;
78871;SDS011;68247;43.514;1.502;2024-03-23T08:15:19;3.65;;;1.10;;
78871;SDS011;68247;43.514;1.502;2024-03-23T08:17:44;2.60;;;0.90;;
78871;SDS011;68247;43.514;1.502;2024-03-23T08:20:10;3.20;;;0.80;;
78871;SDS011;68247;43.514;1.502;2024-03-23T08:22:35;2.95;;;0.98;;
78871;SDS011;68247;43.514;1.502;2024-03-23T08:25:01;5.00;;;1.30;;
78871;SDS011;68247;43.514;1.502;2024-03-23T08:27:26;4.67;;;1.20;;
78871;SDS011;68247;43.514;1.502;2024-03-23T08:29:52;5.90;;;1.33;;
78871;SDS011;68247;43.514;1.502;2024-03-23T08:32:17;7.03;;;1.20;;
78871;SDS011;68247;43.514;1.502;2024-03-23T08:34:42;5.07;;;1.20;;
78871;SDS011;68247;43.514;1.502;2024-03-23T08:37:08;7.30;;;1.70;;
78871;SDS011;68247;43.514;1.502;2024-03-23T08:39:33;7.57;;;1.30;;
78871;SDS011;68247;43.514;1.502;2024-03-23T08:41:59;7.77;;;1.73;;
78871;SDS011;68247;43.514;1.502;2024-03-23T08:44:24;4.18;;;1.40;;
78871;SDS011;68247;43.514;1.502;2024-03-23T08:46:50;4.60;;;1.60;;
78871;SDS011;68247;43.514;1.502;2024-03-23T08:49:15;6.70;;;1.73;;
78871;SDS011;68247;43.514;1.502;2024-03-23T08:51:41;6.72;;;1.45;;
78871;SDS011;68247;43.514;1.502;2024-03-23T08:54:06;6.43;;;2.27;;
78871;SDS011;68247;43.514;1.502;2024-03-23T08:56:31;5.90;;;1.40;;
78871;SDS011;68247;43.514;1.502;2024-03-23T08:58:57;5.47;;;1.50;;
78871;SDS011;68247;43.514;1.502;2024-03-23T09:01:22;6.05;;;1.40;;
78871;SDS011;68247;43.514;1.502;2024-03-23T09:03:48;5.93;;;1.60;;
78871;SDS011;68247;43.514;1.502;2024-03-23T09:06:14;7.30;;;1.60;;
78871;SDS011;68247;43.514;1.502;2024-03-23T09:08:40;9.05;;;1.55;;
78871;SDS011;68247;43.514;1.502;2024-03-23T09:11:07;5.07;;;1.20;;
78871;SDS011;68247;43.514;1.502;2024-03-23T09:13:33;5.85;;;1.67;;
78871;SDS011;68247;43.514;1.502;2024-03-23T09:15:59;6.10;;;1.77;;
78871;SDS011;68247;43.514;1.502;2024-03-23T09:18:25;6.28;;;1.52;;
78871;SDS011;68247;43.514;1.502;2024-03-23T09:20:50;5.90;;;1.33;;
78871;SDS011;68247;43.514;1.502;2024-03-23T09:23:15;6.90;;;1.83;;
78871;SDS011;68247;43.514;1.502;2024-03-23T09:25:41;5.10;;;1.47;;
78871;SDS011;68247;43.514;1.502;2024-03-23T09:28:07;5.25;;;2.00;;
78871;SDS011;68247;43.514;1.502;2024-03-23T09:30:35;8.97;;;1.87;;
78871;SDS011;68247;43.514;1.502;2024-03-23T09:33:07;7.00;;;1.88;;
78871;SDS011;68247;43.514;1.502;2024-03-23T09:35:36;12.25;;;1.90;;
78871;SDS011;68247;43.514;1.502;2024-03-23T09:38:02;4.63;;;1.63;;
78871;SDS011;68247;43.514;1.502;2024-03-23T09:40:27;6.67;;;1.67;;
78871;SDS011;68247;43.514;1.502;2024-03-23T09:42:54;5.22;;;1.52;;
78871;SDS011;68247;43.514;1.502;2024-03-23T09:45:21;7.83;;;1.83;;
78871;SDS011;68247;43.514;1.502;2024-03-23T09:47:47;6.97;;;1.40;;
78871;SDS011;68247;43.514;1.502;2024-03-23T09:50:13;7.32;;;1.60;;
78871;SDS011;68247;43.514;1.502;2024-03-23T09:52:39;7.72;;;1.75;;
78871;SDS011;68247;43.514;1.502;2024-03-23T09:55:06;10.53;;;1.80;;
78871;SDS011;68247;43.514;1.502;2024-03-23T09:57:33;6.13;;;1.70;;
78871;SDS011;68247;43.514;1.502;2024-03-23T09:59:59;8.03;;;1.83;;
78871;SDS011;68247;43.514;1.502;2024-03-23T10:02:24;5.93;;;1.33;;
78871;SDS011;68247;43.514;1.502;2024-03-23T10:04:51;6.70;;;1.50;;
78871;SDS011;68247;43.514;1.502;2024-03-23T10:07:19;7.95;;;1.33;;
78871;SDS011;68247;43.514;1.502;2024-03-23T10:09:45;6.77;;;1.27;;
78871;SDS011;68247;43.514;1.502;2024-03-23T10:12:17;9.27;;;1.95;;
78871;SDS011;68247;43.514;1.502;2024-03-23T10:14:43;6.68;;;1.90;;
78871;SDS011;68247;43.514;1.502;2024-03-23T10:17:21;7.70;;;1.50;;
78871;SDS011;68247;43.514;1.502;2024-03-23T10:19:51;8.90;;;1.60;;
78871;SDS011;68247;43.514;1.502;2024-03-23T10:22:17;6.00;;;1.50;;
78871;SDS011;68247;43.514;1.502;2024-03-23T10:24:47;6.63;;;1.52;;
78871;SDS011;68247;43.514;1.502;2024-03-23T10:27:17;7.80;;;1.73;;
78871;SDS011;68247;43.514;1.502;2024-03-23T10:29:47;7.93;;;1.70;;
78871;SDS011;68247;43.514;1.502;2024-03-23T10:32:13;6.50;;;1.67;;
78871;SDS011;68247;43.514;1.502;2024-03-23T10:34:39;7.83;;;1.80;;
78871;SDS011;68247;43.514;1.502;2024-03-23T10:37:05;7.70;;;1.73;;
78871;SDS011;68247;43.514;1.502;2024-03-23T10:39:35;8.93;;;1.70;;
78871;SDS011;68247;43.514;1.502;2024-03-23T10:42:05;5.93;;;1.33;;
78871;SDS011;68247;43.514;1.502;2024-03-23T10:44:32;7.88;;;1.60;;
78871;SDS011;68247;43.514;1.502;2024-03-23T10:46:58;4.97;;;1.38;;
78871;SDS011;68247;43.514;1.502;2024-03-23T10:49:31;5.10;;;1.50;;
78871;SDS011;68247;43.514;1.502;2024-03-23T10:51:58;5.37;;;1.33;;
78871;SDS011;68247;43.514;1.502;2024-03-23T10:54:25;6.25;;;1.60;;
78871;SDS011;68247;43.514;1.502;2024-03-23T10:56:57;6.10;;;1.58;;
78871;SDS011;68247;43.514;1.502;2024-03-23T10:59:29;5.35;;;1.30;;
78871;SDS011;68247;43.514;1.502;2024-03-23T11:01:58;7.63;;;1.67;;
78871;SDS011;68247;43.514;1.502;2024-03-23T11:07:03;9.00;;;1.80;;
78871;SDS011;68247;43.514;1.502;2024-03-23T11:09:48;6.93;;;1.90;;
78871;SDS011;68247;43.514;1.502;2024-03-23T11:15:01;5.65;;;1.73;;
78871;SDS011;68247;43.514;1.502;2024-03-23T11:17:30;6.00;;;1.90;;
78871;SDS011;68247;43.514;1.502;2024-03-23T11:25:02;6.80;;;2.10;;
78871;SDS011;68247;43.514;1.502;2024-03-23T11:27:41;4.60;;;1.60;;
78871;SDS011;68247;43.514;1.502;2024-03-23T11:30:13;4.25;;;2.08;;
78871;SDS011;68247;43.514;1.502;2024-03-23T11:32:40;5.20;;;1.83;;
78871;SDS011;68247;43.514;1.502;2024-03-23T11:35:07;4.32;;;1.60;;
78871;SDS011;68247;43.514;1.502;2024-03-23T11:37:35;5.07;;;1.70;;
78871;SDS011;68247;43.514;1.502;2024-03-23T11:41:03;6.25;;;2.70;;
78871;SDS011;68247;43.514;1.502;2024-03-23T11:42:58;4.78;;;2.05;;
78871;SDS011;68247;43.514;1.502;2024-03-23T11:45:24;3.60;;;1.50;;
78871;SDS011;68247;43.514;1.502;2024-03-23T11:48:01;5.32;;;1.90;;
78871;SDS011;68247;43.514;1.502;2024-03-23T11:50:47;3.97;;;1.70;;
78871;SDS011;68247;43.514;1.502;2024-03-23T11:55:45;3.45;;;1.70;;
78871;SDS011;68247;43.514;1.502;2024-03-23T11:58:11;3.92;;;1.70;;
78871;SDS011;68247;43.514;1.502;2024-03-23T12:00:37;3.95;;;1.55;;
78871;SDS011;68247;43.514;1.502;2024-03-23T12:03:03;6.17;;;1.70;;
78871;SDS011;68247;43.514;1.502;2024-03-23T12:05:29;5.28;;;1.63;;
78871;SDS011;68247;43.514;1.502;2024-03-23T12:08:14;5.80;;;2.00;;
78871;SDS011;68247;43.514;1.502;2024-03-23T12:10:40;4.13;;;1.80;;
78871;SDS011;68247;43.514;1.502;2024-03-23T12:13:06;4.97;;;1.70;;
78871;SDS011;68247;43.514;1.502;2024-03-23T12:15:31;4.77;;;1.70;;
78871;SDS011;68247;43.514;1.502;2024-03-23T12:18:07;3.83;;;1.80;;
78871;SDS011;68247;43.514;1.502;2024-03-23T12:20:33;5.30;;;1.50;;
78871;SDS011;68247;43.514;1.502;2024-03-23T12:25:34;3.83;;;1.73;;
78871;SDS011;68247;43.514;1.502;2024-03-23T12:28:06;4.15;;;1.70;;
78871;SDS011;68247;43.514;1.502;2024-03-23T12:30:41;3.75;;;1.70;;
78871;SDS011;68247;43.514;1.502;2024-03-23T12:33:07;4.85;;;1.90;;
78871;SDS011;68247;43.514;1.502;2024-03-23T12:35:32;6.00;;;2.00;;
78871;SDS011;68247;43.514;1.502;2024-03-23T12:37:58;4.53;;;1.73;;
78871;SDS011;68247;43.514;1.502;2024-03-23T12:40:23;4.93;;;1.48;;
78871;SDS011;68247;43.514;1.502;2024-03-23T12:42:49;6.20;;;1.80;;
78871;SDS011;68247;43.514;1.502;2024-03-23T12:45:14;5.18;;;2.10;;
78871;SDS011;68247;43.514;1.502;2024-03-23T12:47:40;5.40;;;2.10;;
78871;SDS011;68247;43.514;1.502;2024-03-23T12:50:06;3.33;;;1.80;;
78871;SDS011;68247;43.514;1.502;2024-03-23T12:52:32;4.70;;;1.80;;
78871;SDS011;68247;43.514;1.502;2024-03-23T12:54:58;3.47;;;1.50;;
78871;SDS011;68247;43.514;1.502;2024-03-23T12:57:24;4.77;;;1.70;;
78871;SDS011;68247;43.514;1.502;2024-03-23T12:59:50;3.90;;;1.70;;
78871;SDS011;68247;43.514;1.502;2024-03-23T13:02:19;4.38;;;1.63;;
78871;SDS011;68247;43.514;1.502;2024-03-23T13:04:46;4.72;;;1.90;;
78871;SDS011;68247;43.514;1.502;2024-03-23T13:07:18;4.90;;;1.73;;
78871;SDS011;68247;43.514;1.502;2024-03-23T13:09:44;4.45;;;1.80;;
78871;SDS011;68247;43.514;1.502;2024-03-23T13:12:09;4.18;;;1.63;;
78871;SDS011;68247;43.514;1.502;2024-03-23T13:14:37;5.30;;;1.80;;
78871;SDS011;68247;43.514;1.502;2024-03-23T13:17:02;6.20;;;2.17;;
78871;SDS011;68247;43.514;1.502;2024-03-23T13:19:29;4.88;;;2.15;;
78871;SDS011;68247;43.514;1.502;2024-03-23T13:21:58;5.97;;;1.80;;
78871;SDS011;68247;43.514;1.502;2024-03-23T13:24:25;3.23;;;1.90;;
78871;SDS011;68247;43.514;1.502;2024-03-23T13:26:51;5.07;;;1.80;;
78871;SDS011;68247;43.514;1.502;2024-03-23T13:29:18;4.32;;;1.80;;
78871;SDS011;68247;43.514;1.502;2024-03-23T13:31:44;3.55;;;2.00;;
78871;SDS011;68247;43.514;1.502;2024-03-23T13:34:12;4.10;;;2.00;;
78871;SDS011;68247;43.514;1.502;2024-03-23T13:36:40;7.20;;;2.23;;
78871;SDS011;68247;43.514;1.502;2024-03-23T13:39:06;4.38;;;2.28;;
78871;SDS011;68247;43.514;1.502;2024-03-23T13:41:39;5.70;;;2.20;;
78871;SDS011;68247;43.514;1.502;2024-03-23T13:44:08;4.72;;;2.20;;
78871;SDS011;68247;43.514;1.502;2024-03-23T13:46:37;3.60;;;2.13;;
78871;SDS011;68247;43.514;1.502;2024-03-23T13:49:07;4.90;;;2.27;;
78871;SDS011;68247;43.514;1.502;2024-03-23T13:51:38;4.40;;;1.80;;
78871;SDS011;68247;43.514;1.502;2024-03-23T13:54:04;5.07;;;1.93;;
78871;SDS011;68247;43.514;1.502;2024-03-23T13:56:29;5.28;;;2.08;;
78871;SDS011;68247;43.514;1.502;2024-03-23T13:58:57;6.37;;;2.13;;
78871;SDS011;68247;43.514;1.502;2024-03-23T14:01:23;5.97;;;2.05;;
78871;SDS011;68247;43.514;1.502;2024-03-23T14:03:49;6.27;;;1.97;;
78871;SDS011;68247;43.514;1.502;2024-03-23T14:06:14;4.80;;;2.00;;
78871;SDS011;68247;43.514;1.502;2024-03-23T14:08:40;5.68;;;2.13;;
78871;SDS011;68247;43.514;1.502;2024-03-23T14:11:06;3.93;;;1.80;;
78871;SDS011;68247;43.514;1.502;2024-03-23T14:13:32;6.00;;;2.00;;
78871;SDS011;68247;43.514;1.502;2024-03-23T14:15:58;4.00;;;1.97;;
78871;SDS011;68247;43.514;1.502;2024-03-23T14:18:23;5.20;;;2.40;;
78871;SDS011;68247;43.514;1.502;2024-03-23T14:20:49;4.70;;;2.00;;
78871;SDS011;68247;43.514;1.502;2024-03-23T14:23:15;6.78;;;2.20;;
78871;SDS011;68247;43.514;1.502;2024-03-23T14:25:41;5.50;;;2.40;;
78871;SDS011;68247;43.514;1.502;2024-03-23T14:28:06;5.50;;;2.30;;
78871;SDS011;68247;43.514;1.502;2024-03-23T14:30:38;6.68;;;2.10;;
78871;SDS011;68247;43.514;1.502;2024-03-23T14:33:04;4.30;;;1.93;;
78871;SDS011;68247;43.514;1.502;2024-03-23T14:35:29;5.65;;;2.35;;
78871;SDS011;68247;43.514;1.502;2024-03-23T14:37:56;6.07;;;2.50;;
78871;SDS011;68247;43.514;1.502;2024-03-23T14:40:21;5.72;;;2.22;;
78871;SDS011;68247;43.514;1.502;2024-03-23T14:42:47;5.17;;;2.00;;
78871;SDS011;68247;43.514;1.502;2024-03-23T14:45:12;4.90;;;2.30;;
78871;SDS011;68247;43.514;1.502;2024-03-23T14:47:38;6.10;;;2.20;;
78871;SDS011;68247;43.514;1.502;2024-03-23T14:50:03;6.23;;;2.23;;
78871;SDS011;68247;43.514;1.502;2024-03-23T14:52:29;7.57;;;2.65;;
78871;SDS011;68247;43.514;1.502;2024-03-23T14:54:54;7.33;;;2.47;;
78871;SDS011;68247;43.514;1.502;2024-03-23T14:57:21;5.53;;;2.08;;
78871;SDS011;68247;43.514;1.502;2024-03-23T14:59:47;6.83;;;2.20;;
78871;SDS011;68247;43.514;1.502;2024-03-23T15:02:12;4.50;;;1.87;;
78871;SDS011;68247;43.514;1.502;2024-03-23T15:04:38;7.75;;;2.40;;
78871;SDS011;68247;43.514;1.502;2024-03-23T15:07:06;7.13;;;2.30;;
78871;SDS011;68247;43.514;1.502;2024-03-23T15:09:32;5.07;;;1.90;;
78871;SDS011;68247;43.514;1.502;2024-03-23T15:11:57;5.77;;;2.10;;
78871;SDS011;68247;43.514;1.502;2024-03-23T15:14:23;5.63;;;2.33;;
78871;SDS011;68247;43.514;1.502;2024-03-23T15:16:49;6.68;;;2.08;;
78871;SDS011;68247;43.514;1.502;2024-03-23T15:19:15;4.05;;;2.03;;
78871;SDS011;68247;43.514;1.502;2024-03-23T15:21:42;6.23;;;2.30;;
78871;SDS011;68247;43.514;1.502;2024-03-23T15:24:10;5.78;;;2.42;;
78871;SDS011;68247;43.514;1.502;2024-03-23T15:26:38;6.65;;;2.28;;
78871;SDS011;68247;43.514;1.502;2024-03-23T15:29:04;4.87;;;2.30;;
78871;SDS011;68247;43.514;1.502;2024-03-23T15:31:36;3.97;;;2.00;;
78871;SDS011;68247;43.514;1.502;2024-03-23T15:34:02;5.03;;;1.53;;
78871;SDS011;68247;43.514;1.502;2024-03-23T15:36:28;4.20;;;2.17;;
78871;SDS011;68247;43.514;1.502;2024-03-23T15:38:54;6.27;;;2.10;;
78871;SDS011;68247;43.514;1.502;2024-03-23T15:41:20;4.45;;;2.30;;
78871;SDS011;68247;43.514;1.502;2024-03-23T15:43:48;5.82;;;2.20;;
78871;SDS011;68247;43.514;1.502;2024-03-23T15:46:13;5.80;;;2.30;;
78871;SDS011;68247;43.514;1.502;2024-03-23T15:48:39;6.85;;;2.45;;